US Aviators Van Nuys Flight School Los Angeles Pilot school at Van Nuys Simulator Flight Training Profesional Pilot Instruction Learn to Fly

U.S. Aviators

Learn to fly here! (818) 779-2105

Weather at Van Nuys Airport

Observed:Thu Jan 29, 19:51 PST
Age:57 min ago
Wind:ESE at 3 mph
Visibility:10 miles
Clouds:Overcast
Temperature:64°F (18°C)
Dewpoint:43°F (6°C)
Humidity:46%
Barometer:1017 hPa (30.03 in Hg)

METAR

KVNY 300351Z AUTO 11005KT 10SM BKN090 OVC110 18/06 A3003 RMK AO2 SLP162 T01830061 TSNO